createdAt,value
2022-12-23T00:00:43.920Z,65.91
2022-12-23T00:03:10.455Z,65.91
2022-12-23T00:05:38.131Z,66.02
2022-12-23T00:08:04.764Z,66.40
2022-12-23T00:10:31.174Z,65.64
2022-12-23T00:12:57.526Z,66.48
2022-12-23T00:15:23.857Z,65.87
2022-12-23T00:17:50.213Z,65.04
2022-12-23T00:20:16.551Z,65.53
2022-12-23T00:22:42.940Z,64.97
2022-12-23T00:25:09.295Z,65.35
2022-12-23T00:27:37.675Z,64.35
2022-12-23T00:30:04.303Z,64.93
2022-12-23T00:32:30.692Z,64.85
2022-12-23T00:34:57.077Z,64.72
2022-12-23T00:37:23.423Z,65.08
2022-12-23T00:39:54.800Z,64.83
2022-12-23T00:42:21.515Z,64.54
2022-12-23T00:44:47.869Z,64.39
2022-12-23T00:47:14.275Z,64.58
2022-12-23T00:49:40.677Z,65.36
2022-12-23T00:52:07.063Z,65.61
2022-12-23T00:54:33.411Z,66.09
2022-12-23T00:56:59.758Z,65.53
2022-12-23T00:59:26.120Z,65.66
2022-12-23T01:01:52.578Z,66.07
2022-12-23T01:04:19.065Z,65.99
2022-12-23T01:06:45.401Z,66.06
2022-12-23T01:09:11.726Z,65.43
2022-12-23T01:11:38.114Z,65.88
2022-12-23T01:14:04.500Z,65.36
2022-12-23T01:16:30.896Z,65.93
2022-12-23T01:18:57.247Z,66.19
2022-12-23T01:21:23.596Z,65.95
2022-12-23T01:23:50.004Z,66.32
2022-12-23T01:26:16.430Z,66.91
2022-12-23T01:28:42.773Z,66.02
2022-12-23T01:31:09.149Z,66.02
2022-12-23T01:33:35.560Z,66.46
2022-12-23T01:36:01.958Z,65.39
2022-12-23T01:38:28.299Z,64.99
2022-12-23T01:40:54.632Z,66.12
2022-12-23T01:43:20.987Z,67.14
2022-12-23T01:45:47.424Z,67.19
2022-12-23T01:48:13.845Z,66.91
2022-12-23T01:50:40.232Z,66.73
2022-12-23T01:53:08.092Z,66.43
2022-12-23T01:55:34.931Z,66.06
2022-12-23T01:58:01.276Z,66.65
2022-12-23T02:00:27.657Z,65.92
2022-12-23T02:02:54.165Z,65.70
2022-12-23T02:05:20.569Z,65.95
2022-12-23T02:07:46.927Z,66.72
2022-12-23T02:10:13.334Z,64.97
2022-12-23T02:12:39.676Z,66.12
2022-12-23T02:15:06.056Z,65.04
2022-12-23T02:17:32.448Z,64.69
2022-12-23T02:19:58.859Z,64.11
2022-12-23T02:22:25.275Z,64.71
2022-12-23T02:24:51.662Z,66.42
2022-12-23T02:27:18.074Z,66.03
2022-12-23T02:29:44.453Z,65.34
2022-12-23T02:32:10.831Z,64.66
2022-12-23T02:34:37.176Z,65.64
2022-12-23T02:37:03.510Z,65.42
2022-12-23T02:39:29.908Z,65.97
2022-12-23T02:41:56.324Z,65.31
2022-12-23T02:44:22.658Z,65.80
2022-12-23T02:46:49.014Z,64.61
2022-12-23T02:49:15.364Z,65.78
2022-12-23T02:51:41.706Z,65.20
2022-12-23T02:54:08.049Z,64.99
2022-12-23T02:56:34.434Z,66.19
2022-12-23T02:59:00.770Z,65.32
2022-12-23T03:01:27.276Z,65.43
2022-12-23T03:03:53.810Z,64.86
2022-12-23T03:06:20.255Z,65.40
2022-12-23T03:08:46.590Z,65.47
2022-12-23T03:11:12.971Z,64.00
2022-12-23T03:13:39.345Z,64.04
2022-12-23T03:16:05.715Z,64.09
2022-12-23T03:18:32.110Z,65.36
2022-12-23T03:20:58.472Z,64.02
2022-12-23T03:23:24.830Z,63.80
2022-12-23T03:25:51.214Z,62.95
2022-12-23T03:28:17.623Z,63.78
2022-12-23T03:30:44.017Z,63.31
2022-12-23T03:33:10.387Z,63.18
2022-12-23T03:35:36.762Z,63.47
2022-12-23T03:38:03.132Z,63.43
2022-12-23T03:40:29.484Z,63.49
2022-12-23T03:42:55.878Z,64.49
2022-12-23T03:45:38.762Z,64.79
2022-12-23T03:48:05.971Z,63.69
2022-12-23T03:50:32.300Z,63.49
2022-12-23T03:52:58.659Z,63.81
2022-12-23T03:55:25.026Z,63.68
2022-12-23T03:57:51.354Z,63.82
2022-12-23T04:00:17.733Z,63.70
2022-12-23T04:02:44.287Z,63.68
2022-12-23T04:05:10.728Z,63.89
2022-12-23T04:07:37.102Z,64.16
2022-12-23T04:10:03.522Z,63.95
2022-12-23T04:12:29.907Z,64.06
2022-12-23T04:14:56.257Z,63.67
2022-12-23T04:17:22.586Z,64.24
2022-12-23T04:19:48.926Z,63.97
2022-12-23T04:22:15.265Z,63.89
2022-12-23T04:24:41.606Z,63.13
2022-12-23T04:27:07.934Z,63.04
2022-12-23T04:29:34.267Z,63.18
2022-12-23T04:32:00.608Z,63.53
2022-12-23T04:34:26.997Z,63.14
2022-12-23T04:36:53.356Z,63.45
2022-12-23T04:39:19.775Z,63.54
2022-12-23T04:41:46.178Z,63.77
2022-12-23T04:44:12.541Z,64.63
2022-12-23T04:46:38.953Z,64.30
2022-12-23T04:49:05.321Z,64.79
2022-12-23T04:51:31.701Z,64.25
2022-12-23T04:53:58.093Z,64.63
2022-12-23T04:56:24.492Z,64.54
2022-12-23T04:58:50.875Z,64.72
2022-12-23T05:01:17.293Z,63.56
2022-12-23T05:03:43.674Z,64.05
2022-12-23T05:06:10.043Z,64.62
2022-12-23T05:08:36.426Z,65.03
2022-12-23T05:11:02.808Z,64.75
2022-12-23T05:13:29.151Z,65.94
2022-12-23T05:15:55.554Z,64.91
2022-12-23T05:18:21.917Z,66.55
2022-12-23T05:20:48.280Z,66.42
2022-12-23T05:23:14.663Z,66.30
2022-12-23T05:25:41.001Z,66.24
2022-12-23T05:28:07.348Z,66.70
2022-12-23T05:30:33.729Z,65.94
2022-12-23T05:33:00.180Z,65.84
2022-12-23T05:35:26.589Z,65.52
2022-12-23T05:37:52.947Z,65.32
2022-12-23T05:40:24.097Z,64.48
2022-12-23T05:42:56.822Z,64.34
2022-12-23T05:45:23.162Z,63.84
2022-12-23T05:47:49.549Z,62.84
2022-12-23T05:50:15.939Z,62.48
2022-12-23T05:52:42.351Z,61.61
2022-12-23T05:55:08.728Z,61.56
2022-12-23T05:57:35.086Z,62.06
2022-12-23T06:00:02.565Z,61.75
2022-12-23T06:02:29.069Z,61.96
2022-12-23T06:04:55.594Z,61.26
